createdAt,value
2022-08-25T00:01:51.913Z,24.65
2022-08-25T00:04:18.568Z,24.66
2022-08-25T00:06:45.296Z,24.65
2022-08-25T00:09:13.054Z,24.66
2022-08-25T00:11:39.995Z,24.66
2022-08-25T00:14:12.911Z,24.68
2022-08-25T00:16:39.605Z,24.65
2022-08-25T00:19:08.646Z,24.66
2022-08-25T00:21:35.145Z,24.66
2022-08-25T00:24:02.378Z,24.65
2022-08-25T00:26:29.731Z,24.63
2022-08-25T00:29:01.632Z,24.61
2022-08-25T00:31:38.532Z,24.60
2022-08-25T00:34:10.721Z,24.59
2022-08-25T00:36:37.576Z,24.59
2022-08-25T00:39:04.940Z,24.55
2022-08-25T00:41:31.437Z,24.57
2022-08-25T00:44:00.562Z,24.57
2022-08-25T00:46:29.587Z,24.55
2022-08-25T00:48:59.101Z,24.56
2022-08-25T00:51:30.338Z,24.55
2022-08-25T00:53:56.843Z,24.57
2022-08-25T00:56:23.817Z,24.57
2022-08-25T00:58:50.323Z,24.57
2022-08-25T01:01:16.875Z,24.58
2022-08-25T01:03:43.441Z,24.59
2022-08-25T01:06:11.557Z,24.57
2022-08-25T01:08:38.343Z,24.55
2022-08-25T01:11:06.146Z,24.55
2022-08-25T01:13:40.147Z,24.56
2022-08-25T01:16:06.563Z,24.56
2022-08-25T01:18:47.249Z,24.56
2022-08-25T01:21:13.821Z,24.55
2022-08-25T01:23:41.186Z,24.55
2022-08-25T01:26:19.717Z,24.53
2022-08-25T01:29:10.501Z,24.53
2022-08-25T01:31:37.973Z,24.50
2022-08-25T01:34:05.658Z,24.51
2022-08-25T01:36:32.427Z,24.45
2022-08-25T01:38:58.989Z,24.49
2022-08-25T01:41:48.299Z,24.50
2022-08-25T01:44:17.903Z,24.47
2022-08-25T01:46:44.388Z,24.45
2022-08-25T01:49:10.879Z,24.48
2022-08-25T01:51:44.489Z,24.47
2022-08-25T01:54:11.271Z,24.46
2022-08-25T01:56:38.737Z,24.48
2022-08-25T01:59:05.265Z,24.48
2022-08-25T02:01:32.247Z,24.48
2022-08-25T02:03:59.533Z,24.48
2022-08-25T02:06:33.111Z,24.47
2022-08-25T02:09:13.255Z,24.48
2022-08-25T02:11:42.045Z,24.50
2022-08-25T02:14:09.260Z,24.49
2022-08-25T02:16:36.727Z,24.49
2022-08-25T02:19:04.654Z,24.49
2022-08-25T02:21:32.476Z,24.48
2022-08-25T02:23:59.141Z,24.48
2022-08-25T02:26:27.352Z,24.43
2022-08-25T02:28:54.050Z,24.44
2022-08-25T02:31:22.506Z,24.42
2022-08-25T02:33:49.305Z,24.41
2022-08-25T02:36:16.062Z,24.40
2022-08-25T02:38:42.602Z,24.40
2022-08-25T02:41:16.724Z,24.41
2022-08-25T02:43:43.731Z,24.40
2022-08-25T02:46:11.324Z,24.40
2022-08-25T02:48:38.608Z,24.36
2022-08-25T02:51:06.472Z,24.37
2022-08-25T02:53:33.383Z,24.36
2022-08-25T02:55:59.883Z,24.39
2022-08-25T02:58:26.399Z,24.39
2022-08-25T03:00:53.229Z,24.39
2022-08-25T03:03:20.033Z,24.38
2022-08-25T03:05:46.604Z,24.36
2022-08-25T03:08:13.099Z,24.38
2022-08-25T03:10:39.608Z,24.37
2022-08-25T03:13:06.085Z,24.38
2022-08-25T03:15:32.983Z,24.37
2022-08-25T03:17:59.989Z,24.38
2022-08-25T03:20:27.835Z,24.39
2022-08-25T03:22:54.619Z,24.37
2022-08-25T03:25:39.838Z,24.36
2022-08-25T03:28:06.926Z,24.33
2022-08-25T03:30:33.687Z,24.32
2022-08-25T03:33:00.176Z,24.34
2022-08-25T03:35:26.655Z,24.31
2022-08-25T03:37:57.080Z,24.32
2022-08-25T03:40:23.774Z,24.34
2022-08-25T03:42:50.325Z,24.34
2022-08-25T03:45:17.221Z,24.35
2022-08-25T03:47:45.982Z,24.35
2022-08-25T03:50:12.710Z,24.34
2022-08-25T03:52:42.545Z,24.33
2022-08-25T03:55:10.430Z,24.34
2022-08-25T03:57:36.916Z,24.29
2022-08-25T04:00:06.150Z,24.34
2022-08-25T04:02:33.681Z,24.32
2022-08-25T04:05:00.954Z,24.32
2022-08-25T04:07:27.442Z,24.33
2022-08-25T04:09:54.816Z,24.33
2022-08-25T04:12:21.303Z,24.33
2022-08-25T04:14:49.285Z,24.32
2022-08-25T04:17:15.817Z,24.33
2022-08-25T04:19:42.302Z,24.32
2022-08-25T04:22:08.786Z,24.31
2022-08-25T04:24:35.260Z,24.31
2022-08-25T04:27:01.738Z,24.27
2022-08-25T04:29:28.222Z,24.28
2022-08-25T04:31:54.890Z,24.27
2022-08-25T04:34:31.059Z,24.27
2022-08-25T04:37:02.465Z,24.28
2022-08-25T04:39:29.022Z,24.29
2022-08-25T04:41:55.540Z,24.31
2022-08-25T04:44:22.085Z,24.34
2022-08-25T04:46:49.690Z,24.39
2022-08-25T04:49:16.186Z,24.42
2022-08-25T04:51:42.698Z,24.47
2022-08-25T04:54:16.822Z,24.50
2022-08-25T04:56:43.407Z,24.53
2022-08-25T04:59:11.750Z,24.54
2022-08-25T05:01:38.782Z,24.53
2022-08-25T05:04:06.031Z,24.59
2022-08-25T05:06:32.705Z,24.68
2022-08-25T05:08:59.361Z,24.76
2022-08-25T05:11:25.974Z,24.78
2022-08-25T05:13:53.353Z,24.80
2022-08-25T05:16:20.759Z,24.80
2022-08-25T05:18:47.371Z,24.83
2022-08-25T05:21:15.414Z,24.85
2022-08-25T05:23:42.085Z,24.87
2022-08-25T05:26:12.982Z,24.88
2022-08-25T05:28:41.778Z,24.88
2022-08-25T05:31:09.398Z,24.89
2022-08-25T05:33:36.335Z,24.90
2022-08-25T05:36:03.267Z,24.91
2022-08-25T05:38:30.315Z,24.93
2022-08-25T05:41:01.585Z,24.91
2022-08-25T05:43:28.929Z,24.97
2022-08-25T05:45:55.946Z,25.01
2022-08-25T05:48:22.582Z,25.02
2022-08-25T05:50:57.411Z,25.04
2022-08-25T05:53:24.242Z,25.06
2022-08-25T05:55:54.118Z,25.09
2022-08-25T05:58:20.949Z,25.15
2022-08-25T06:00:47.668Z,25.16
2022-08-25T06:03:14.214Z,25.18
2022-08-25T06:05:41.102Z,25.19
2022-08-25T06:08:07.594Z,25.20
2022-08-25T06:10:34.120Z,25.18
2022-08-25T06:13:00.754Z,25.21
2022-08-25T06:15:28.014Z,25.30
2022-08-25T06:18:00.726Z,25.32
2022-08-25T06:20:29.126Z,25.34
2022-08-25T06:22:55.645Z,25.13
2022-08-25T06:25:23.561Z,24.77
2022-08-25T06:27:50.045Z,24.68
2022-08-25T06:30:23.738Z,24.70
2022-08-25T06:32:51.136Z,24.74
2022-08-25T06:35:20.767Z,24.76
2022-08-25T06:37:47.460Z,24.72
2022-08-25T06:40:14.278Z,24.63
2022-08-25T06:42:40.850Z,24.62
2022-08-25T06:45:07.796Z,24.70
2022-08-25T06:47:34.447Z,24.72
2022-08-25T06:50:03.554Z,24.73
2022-08-25T06:52:31.029Z,24.76
2022-08-25T06:54:57.575Z,24.73
2022-08-25T06:57:24.122Z,24.74
2022-08-25T06:59:53.574Z,24.76
2022-08-25T07:02:21.976Z,24.79
2022-08-25T07:04:48.797Z,24.81
2022-08-25T07:07:15.323Z,24.82
2022-08-25T07:09:41.818Z,24.81
2022-08-25T07:12:08.443Z,24.80
2022-08-25T07:14:36.380Z,24.85
2022-08-25T07:17:03.341Z,24.84
2022-08-25T07:19:37.389Z,24.77
2022-08-25T07:22:03.898Z,24.82
2022-08-25T07:24:30.389Z,24.84
2022-08-25T07:26:56.946Z,24.86
2022-08-25T07:29:31.901Z,24.86
2022-08-25T07:32:00.963Z,24.92
2022-08-25T07:34:46.056Z,24.90
2022-08-25T07:37:32.270Z,24.93
2022-08-25T07:40:05.752Z,24.99
2022-08-25T07:42:32.275Z,24.87
2022-08-25T07:44:58.856Z,24.89
2022-08-25T07:47:25.351Z,24.92
2022-08-25T07:49:52.444Z,24.93
2022-08-25T07:52:19.808Z,24.93
2022-08-25T07:54:46.322Z,25.01
2022-08-25T07:57:13.715Z,25.07
2022-08-25T07:59:41.752Z,25.13
2022-08-25T08:02:17.621Z,25.04
2022-08-25T08:04:48.348Z,25.10
2022-08-25T08:07:19.653Z,25.41
2022-08-25T08:09:46.926Z,25.98
2022-08-25T08:12:13.438Z,25.73
2022-08-25T08:14:45.043Z,25.49
2022-08-25T08:17:12.889Z,25.43
2022-08-25T08:19:44.889Z,25.38
2022-08-25T08:22:15.252Z,25.48
2022-08-25T08:24:54.450Z,25.27
2022-08-25T08:27:22.437Z,25.22
2022-08-25T08:29:49.278Z,25.34
2022-08-25T08:32:17.830Z,25.53
2022-08-25T08:34:46.129Z,25.55
2022-08-25T08:37:12.611Z,25.54
2022-08-25T08:39:39.483Z,25.53
2022-08-25T08:42:37.069Z,25.62
2022-08-25T08:45:09.629Z,25.64
2022-08-25T08:47:59.175Z,25.51
2022-08-25T08:50:32.965Z,25.59
2022-08-25T08:53:23.329Z,25.65
2022-08-25T08:56:01.434Z,25.68
2022-08-25T08:58:35.263Z,25.77
2022-08-25T09:01:03.008Z,25.61
2022-08-25T09:03:55.356Z,25.75
2022-08-25T09:06:32.111Z,25.67
2022-08-25T09:08:59.232Z,25.64
2022-08-25T09:11:40.917Z,25.81
2022-08-25T09:14:07.250Z,25.72
2022-08-25T09:16:59.669Z,25.58
2022-08-25T09:20:04.909Z,25.48
2022-08-25T09:22:39.063Z,25.67
2022-08-25T09:25:53.517Z,25.84
2022-08-25T09:28:31.742Z,25.91
2022-08-25T09:31:01.613Z,25.78
2022-08-25T09:33:29.697Z,25.76
2022-08-25T09:35:57.477Z,25.72
2022-08-25T09:38:24.793Z,25.72
2022-08-25T09:40:54.509Z,25.69
2022-08-25T09:43:29.574Z,25.70
2022-08-25T09:45:58.541Z,25.68
2022-08-25T09:48:42.294Z,25.69
2022-08-25T09:51:27.071Z,25.67
2022-08-25T09:54:10.596Z,25.67
2022-08-25T09:56:38.195Z,25.67
2022-08-25T09:59:35.004Z,25.69
2022-08-25T10:02:25.185Z,25.70
2022-08-25T10:04:52.921Z,25.71
2022-08-25T10:07:25.350Z,25.63
2022-08-25T10:09:57.642Z,25.67
2022-08-25T10:12:35.105Z,25.68
2022-08-25T10:15:35.855Z,25.67
2022-08-25T10:18:23.417Z,25.69
2022-08-25T10:21:12.021Z,25.68
2022-08-25T10:23:57.325Z,25.68
2022-08-25T10:26:45.755Z,25.67
2022-08-25T10:29:32.651Z,25.69
2022-08-25T10:32:19.177Z,25.67
2022-08-25T10:34:51.638Z,25.68
2022-08-25T10:37:47.865Z,25.66
2022-08-25T10:40:38.690Z,25.75
2022-08-25T10:43:19.230Z,25.79
2022-08-25T10:45:54.189Z,25.82
2022-08-25T10:48:48.687Z,25.85
2022-08-25T10:51:45.778Z,25.91
2022-08-25T10:54:29.094Z,25.94
2022-08-25T10:57:17.273Z,25.99
2022-08-25T10:59:51.091Z,25.97
2022-08-25T11:02:42.535Z,25.95
2022-08-25T11:05:24.954Z,26.03
2022-08-25T11:08:11.467Z,26.07
2022-08-25T11:10:48.415Z,26.07
2022-08-25T11:13:26.403Z,26.09
2022-08-25T11:16:19.189Z,26.09
2022-08-25T11:18:52.764Z,26.09
2022-08-25T11:21:27.935Z,26.10
2022-08-25T11:24:00.591Z,26.13
2022-08-25T11:26:36.667Z,26.13
2022-08-25T11:29:12.560Z,26.13
2022-08-25T11:31:52.724Z,26.15
2022-08-25T11:34:19.914Z,26.16
2022-08-25T11:36:52.239Z,26.16
2022-08-25T11:39:56.414Z,26.21
2022-08-25T11:42:49.086Z,26.25
2022-08-25T11:45:21.563Z,26.30
2022-08-25T11:48:13.340Z,26.30
2022-08-25T11:51:16.379Z,26.33
2022-08-25T11:53:43.237Z,26.32
2022-08-25T11:56:12.492Z,26.28
2022-08-25T11:58:42.878Z,26.32
2022-08-25T12:01:11.223Z,26.33
2022-08-25T12:03:47.372Z,26.32
2022-08-25T12:06:25.211Z,26.33
2022-08-25T12:09:17.737Z,26.30
2022-08-25T12:11:46.989Z,26.37
2022-08-25T12:14:28.135Z,26.36
2022-08-25T12:16:54.887Z,26.35
2022-08-25T12:19:34.401Z,26.39
2022-08-25T12:22:04.185Z,26.36
2022-08-25T12:24:48.140Z,26.37
2022-08-25T12:27:33.794Z,26.36
2022-08-25T12:30:05.864Z,26.37
2022-08-25T12:32:50.527Z,26.34
2022-08-25T12:35:31.339Z,26.32
2022-08-25T12:38:05.973Z,26.38
2022-08-25T12:40:38.517Z,26.36
2022-08-25T12:43:10.503Z,26.29
2022-08-25T12:45:42.418Z,26.33
2022-08-25T12:48:27.192Z,26.34
2022-08-25T12:51:04.978Z,26.33
2022-08-25T12:53:36.218Z,26.33
2022-08-25T12:56:08.057Z,26.32
2022-08-25T12:59:01.039Z,26.32
2022-08-25T13:01:37.060Z,26.34
2022-08-25T13:04:26.758Z,26.34
2022-08-25T13:07:07.605Z,26.34
2022-08-25T13:09:49.559Z,26.33
2022-08-25T13:12:24.026Z,26.30
2022-08-25T13:14:56.370Z,26.29
2022-08-25T13:17:33.820Z,26.28
2022-08-25T13:20:20.331Z,26.34
2022-08-25T13:22:47.857Z,26.35
2022-08-25T13:25:23.129Z,26.36
2022-08-25T13:27:51.886Z,26.33
2022-08-25T13:30:32.198Z,26.34
2022-08-25T13:32:59.033Z,26.34
2022-08-25T13:35:32.165Z,26.32
2022-08-25T13:38:15.178Z,26.30
2022-08-25T13:40:42.976Z,26.23
2022-08-25T13:43:10.977Z,26.27
2022-08-25T13:45:41.257Z,26.26
2022-08-25T13:48:23.080Z,26.26
2022-08-25T13:50:53.171Z,26.26
2022-08-25T13:53:23.890Z,26.25
2022-08-25T13:55:54.829Z,26.28
2022-08-25T13:58:34.325Z,26.24
2022-08-25T14:01:47.977Z,26.24
2022-08-25T14:04:24.176Z,26.23
2022-08-25T14:07:14.308Z,26.22
2022-08-25T14:09:49.285Z,26.25
2022-08-25T14:12:36.748Z,26.25
2022-08-25T14:15:13.585Z,26.19
2022-08-25T14:17:41.885Z,26.23
2022-08-25T14:20:29.658Z,26.23
2022-08-25T14:22:58.247Z,26.23
2022-08-25T14:25:27.595Z,26.28
2022-08-25T14:28:06.701Z,26.28
2022-08-25T14:30:35.122Z,26.25
2022-08-25T14:33:01.992Z,26.26
2022-08-25T14:35:29.523Z,26.24
2022-08-25T14:37:57.919Z,26.24
2022-08-25T14:40:24.495Z,26.26
2022-08-25T14:42:51.190Z,26.29
2022-08-25T14:45:17.801Z,26.27
2022-08-25T14:47:44.666Z,26.27
2022-08-25T14:50:16.989Z,26.25
2022-08-25T14:52:46.732Z,26.24
2022-08-25T14:55:13.569Z,26.27
2022-08-25T14:57:56.239Z,26.25
2022-08-25T15:03:03.964Z,26.37
2022-08-25T15:05:31.783Z,26.61
2022-08-25T15:08:16.881Z,26.66
2022-08-25T15:10:43.584Z,26.53
2022-08-25T15:13:10.335Z,26.44
2022-08-25T15:15:38.571Z,26.47
2022-08-25T15:18:05.507Z,26.50
2022-08-25T15:20:32.794Z,26.57
2022-08-25T15:23:00.247Z,26.57
2022-08-25T15:25:27.233Z,26.38
2022-08-25T15:27:54.131Z,26.38
2022-08-25T15:30:20.796Z,26.53
2022-08-25T15:32:59.888Z,26.40
2022-08-25T15:35:27.668Z,26.33
2022-08-25T15:37:55.592Z,26.36
2022-08-25T15:40:22.430Z,26.40
2022-08-25T15:42:49.112Z,26.28
2022-08-25T15:45:15.707Z,26.29
2022-08-25T15:47:44.393Z,26.35
2022-08-25T15:50:14.631Z,26.32
2022-08-25T15:52:47.386Z,26.40
2022-08-25T15:55:14.614Z,26.31
2022-08-25T15:57:42.244Z,26.28
2022-08-25T16:00:13.685Z,26.26
2022-08-25T16:02:43.530Z,26.24
2022-08-25T16:05:12.271Z,26.28
2022-08-25T16:07:40.020Z,26.25
2022-08-25T16:10:06.886Z,26.25
2022-08-25T16:12:33.408Z,26.25
2022-08-25T16:14:59.967Z,26.28
2022-08-25T16:17:26.676Z,26.17
2022-08-25T16:19:53.204Z,26.22
2022-08-25T16:22:19.820Z,26.25
2022-08-25T16:24:46.804Z,26.24
2022-08-25T16:27:14.164Z,26.28
2022-08-25T16:29:45.057Z,26.34
2022-08-25T16:32:13.388Z,26.24
2022-08-25T16:34:40.613Z,26.25
2022-08-25T16:37:07.097Z,26.27
2022-08-25T16:39:33.980Z,26.34
2022-08-25T16:42:00.465Z,26.33
2022-08-25T16:44:27.773Z,26.35
2022-08-25T16:46:55.190Z,26.28
2022-08-25T16:49:24.348Z,26.25
2022-08-25T16:51:57.296Z,26.31
2022-08-25T16:54:42.987Z,26.35
2022-08-25T16:57:09.630Z,26.37
2022-08-25T16:59:36.117Z,26.40
2022-08-25T17:02:02.725Z,26.45
2022-08-25T17:04:32.636Z,26.42
2022-08-25T17:06:59.502Z,26.43
2022-08-25T17:09:26.245Z,26.32
2022-08-25T17:11:57.688Z,26.24
2022-08-25T17:14:24.337Z,26.22
2022-08-25T17:16:55.551Z,26.30
2022-08-25T17:19:23.836Z,26.24
2022-08-25T17:21:50.588Z,26.27
2022-08-25T17:24:17.693Z,26.22
2022-08-25T17:26:46.320Z,26.24
2022-08-25T17:29:12.841Z,26.28
2022-08-25T17:31:39.971Z,26.34
2022-08-25T17:34:08.613Z,26.25
2022-08-25T17:36:35.537Z,26.20
2022-08-25T17:39:02.715Z,26.19
2022-08-25T17:41:30.089Z,26.17
2022-08-25T17:43:56.939Z,26.18
2022-08-25T17:46:23.992Z,26.22
2022-08-25T17:48:51.060Z,26.27
2022-08-25T17:51:17.599Z,26.21
2022-08-25T17:53:44.121Z,26.17
2022-08-25T17:56:16.038Z,26.15
2022-08-25T17:58:42.562Z,26.17
2022-08-25T18:01:16.255Z,26.16
2022-08-25T18:03:43.490Z,26.13
2022-08-25T18:06:12.081Z,26.11
2022-08-25T18:08:42.476Z,26.09
2022-08-25T18:11:09.029Z,26.11
2022-08-25T18:13:36.309Z,26.10
2022-08-25T18:16:02.959Z,26.12
2022-08-25T18:18:31.030Z,26.11
2022-08-25T18:20:57.542Z,26.10
2022-08-25T18:23:25.655Z,26.14
2022-08-25T18:25:52.607Z,26.11
2022-08-25T18:28:33.756Z,26.05
2022-08-25T18:31:01.967Z,26.05
2022-08-25T18:33:29.901Z,26.03
2022-08-25T18:35:57.375Z,25.95
2022-08-25T18:38:42.924Z,25.92
2022-08-25T18:41:09.647Z,25.91
2022-08-25T18:43:36.546Z,25.91
2022-08-25T18:46:04.769Z,25.89
2022-08-25T18:48:31.604Z,25.90
2022-08-25T18:50:58.195Z,25.90
2022-08-25T18:53:30.453Z,25.85
2022-08-25T18:56:04.555Z,25.85
2022-08-25T18:58:31.037Z,25.81
2022-08-25T19:00:57.578Z,25.84
2022-08-25T19:03:24.090Z,25.83
2022-08-25T19:05:57.079Z,25.82
2022-08-25T19:08:24.114Z,25.82
2022-08-25T19:10:51.445Z,25.83
2022-08-25T19:13:17.991Z,25.79
2022-08-25T19:15:49.416Z,25.78
2022-08-25T19:18:17.483Z,25.77
2022-08-25T19:20:44.695Z,25.75
2022-08-25T19:23:11.244Z,25.74
2022-08-25T19:25:41.763Z,25.73
2022-08-25T19:28:09.689Z,25.72
2022-08-25T19:30:49.983Z,25.73
2022-08-25T19:33:42.021Z,25.68
2022-08-25T19:36:05.023Z,25.70
2022-08-25T19:38:33.995Z,25.67
2022-08-25T19:41:02.516Z,25.65
2022-08-25T19:43:31.526Z,25.70
2022-08-25T19:45:58.052Z,25.69
2022-08-25T19:48:24.575Z,25.67
2022-08-25T19:50:56.134Z,25.66
2022-08-25T19:53:22.838Z,25.65
2022-08-25T19:55:53.711Z,25.65
2022-08-25T19:58:20.479Z,25.63
2022-08-25T20:00:49.451Z,25.61
2022-08-25T20:03:20.394Z,25.58
2022-08-25T20:05:47.804Z,25.57
2022-08-25T20:08:15.919Z,25.53
2022-08-25T20:10:42.627Z,25.51
2022-08-25T20:13:09.182Z,25.47
2022-08-25T20:15:38.741Z,25.49
2022-08-25T20:18:05.949Z,25.47
2022-08-25T20:20:34.599Z,25.46
2022-08-25T20:23:20.759Z,25.39
2022-08-25T20:25:50.215Z,25.34
2022-08-25T20:28:19.006Z,25.30
2022-08-25T20:30:45.898Z,25.13
2022-08-25T20:33:13.368Z,25.21
2022-08-25T20:35:47.494Z,25.19
2022-08-25T20:38:14.009Z,25.23
2022-08-25T20:40:41.616Z,25.26
2022-08-25T20:43:10.400Z,25.30
2022-08-25T20:45:39.092Z,25.31
2022-08-25T20:48:06.282Z,25.21
2022-08-25T20:50:33.802Z,25.26
2022-08-25T20:53:00.860Z,25.35
2022-08-25T20:55:28.804Z,25.43
2022-08-25T20:57:55.286Z,25.45
2022-08-25T21:00:22.782Z,25.40
2022-08-25T21:02:51.923Z,25.38
2022-08-25T21:05:18.807Z,25.34
2022-08-25T21:07:45.348Z,25.28
2022-08-25T21:10:14.416Z,25.27
2022-08-25T21:12:41.258Z,25.26
2022-08-25T21:15:10.334Z,25.21
2022-08-25T21:17:36.826Z,25.20
2022-08-25T21:20:05.290Z,25.16
2022-08-25T21:22:39.798Z,25.13
2022-08-25T21:25:07.130Z,25.08
2022-08-25T21:27:33.613Z,24.93
2022-08-25T21:30:00.153Z,24.92
2022-08-25T21:32:26.655Z,25.01
2022-08-25T21:34:54.017Z,24.94
2022-08-25T21:37:20.834Z,24.94
2022-08-25T21:39:47.387Z,25.03
2022-08-25T21:42:13.930Z,25.06
2022-08-25T21:44:40.435Z,24.97
2022-08-25T21:47:07.017Z,25.04
2022-08-25T21:49:37.301Z,25.06
2022-08-25T21:52:04.525Z,25.06
2022-08-25T21:54:31.127Z,25.02
2022-08-25T21:57:01.900Z,24.99
2022-08-25T21:59:30.089Z,24.92
2022-08-25T22:01:57.716Z,24.89
2022-08-25T22:04:24.383Z,24.94
2022-08-25T22:06:50.978Z,24.92
2022-08-25T22:09:17.696Z,24.74
2022-08-25T22:11:45.552Z,24.79
2022-08-25T22:14:12.667Z,24.79
2022-08-25T22:16:39.396Z,24.81
2022-08-25T22:19:06.606Z,24.81
2022-08-25T22:21:33.429Z,24.78
2022-08-25T22:24:00.077Z,24.85
2022-08-25T22:26:28.960Z,24.79
2022-08-25T22:28:56.602Z,24.74
2022-08-25T22:31:23.449Z,24.77
2022-08-25T22:33:50.461Z,24.77
2022-08-25T22:36:21.997Z,24.72
2022-08-25T22:38:48.626Z,24.62
2022-08-25T22:41:19.119Z,24.69
2022-08-25T22:43:48.555Z,24.73
2022-08-25T22:46:15.113Z,24.71
2022-08-25T22:48:43.958Z,24.61
2022-08-25T22:51:20.559Z,24.63
2022-08-25T22:53:47.537Z,24.64
2022-08-25T22:56:17.226Z,24.67
2022-08-25T22:58:43.842Z,24.78
2022-08-25T23:01:18.900Z,24.93
2022-08-25T23:03:45.444Z,25.02
2022-08-25T23:06:17.047Z,25.03
2022-08-25T23:08:45.482Z,25.04
2022-08-25T23:11:12.399Z,25.05
2022-08-25T23:13:39.277Z,25.08
2022-08-25T23:16:09.155Z,25.07
2022-08-25T23:18:43.117Z,25.09
2022-08-25T23:21:28.982Z,25.09
2022-08-25T23:24:01.835Z,25.09
2022-08-25T23:26:28.718Z,25.09
2022-08-25T23:28:55.215Z,25.10
2022-08-25T23:31:21.846Z,25.10
2022-08-25T23:33:50.802Z,25.11
2022-08-25T23:36:17.365Z,25.11
2022-08-25T23:38:45.003Z,25.11
2022-08-25T23:41:20.056Z,25.12
2022-08-25T23:43:47.870Z,25.12
2022-08-25T23:46:16.560Z,25.12
2022-08-25T23:48:43.081Z,25.15
2022-08-25T23:51:09.591Z,25.14
2022-08-25T23:53:36.299Z,25.13
2022-08-25T23:56:02.991Z,25.13
2022-08-25T23:58:32.239Z,25.15
